createdAt,value
2022-08-17T00:00:08.128Z,17.05
2022-08-17T00:02:55.998Z,19.85
2022-08-17T00:05:25.972Z,20.10
2022-08-17T00:07:53.756Z,18.77
2022-08-17T00:10:24.669Z,22.02
2022-08-17T00:12:53.484Z,22.63
2022-08-17T00:15:22.300Z,23.02
2022-08-17T00:17:51.532Z,22.20
2022-08-17T00:20:19.858Z,20.52
2022-08-17T00:23:03.286Z,22.15
2022-08-17T00:25:31.181Z,23.60
2022-08-17T00:27:58.766Z,25.30
2022-08-17T00:30:28.701Z,26.00
2022-08-17T00:33:14.004Z,23.42
2022-08-17T00:35:45.512Z,22.77
2022-08-17T00:38:15.469Z,22.63
2022-08-17T00:40:46.321Z,24.95
2022-08-17T00:43:19.200Z,25.17
2022-08-17T00:45:48.068Z,25.45
2022-08-17T00:48:29.134Z,25.00
2022-08-17T00:51:05.678Z,24.25
2022-08-17T00:53:38.751Z,23.58
2022-08-17T00:56:14.768Z,24.88
2022-08-17T00:58:42.679Z,24.17
2022-08-17T01:01:12.172Z,22.58
2022-08-17T01:03:49.697Z,21.95
2022-08-17T01:06:17.893Z,21.25
2022-08-17T01:08:47.168Z,22.70
2022-08-17T01:11:14.953Z,23.33
2022-08-17T01:13:43.656Z,24.05
2022-08-17T01:16:16.516Z,25.48
2022-08-17T01:18:46.936Z,24.70
2022-08-17T01:21:22.575Z,25.35
2022-08-17T01:23:52.374Z,22.67
2022-08-17T01:26:20.507Z,23.40
2022-08-17T01:28:54.263Z,26.00
2022-08-17T01:31:28.153Z,25.88
2022-08-17T01:33:56.931Z,24.52
2022-08-17T01:36:24.594Z,22.38
2022-08-17T01:38:53.875Z,23.45
2022-08-17T01:41:22.927Z,24.08
2022-08-17T01:43:54.286Z,25.23
2022-08-17T01:48:51.240Z,23.13
2022-08-17T01:51:20.056Z,24.00
2022-08-17T01:53:50.661Z,24.70
2022-08-17T01:56:22.561Z,23.27
2022-08-17T01:58:50.871Z,23.80
2022-08-17T02:01:20.748Z,24.73
2022-08-17T02:03:59.153Z,23.15
2022-08-17T02:06:32.829Z,21.63
2022-08-17T02:09:16.739Z,21.30
2022-08-17T02:11:46.443Z,21.33
2022-08-17T02:14:15.274Z,22.65
2022-08-17T02:16:43.326Z,21.95
2022-08-17T02:19:13.656Z,22.90
2022-08-17T02:21:42.870Z,25.13
2022-08-17T02:24:13.747Z,19.75
2022-08-17T02:26:41.716Z,22.65
2022-08-17T02:29:10.932Z,22.25
2022-08-17T02:31:38.661Z,23.48
2022-08-17T02:34:06.407Z,22.52
2022-08-17T02:36:35.386Z,23.20
2022-08-17T02:39:04.884Z,21.67
2022-08-17T02:41:32.542Z,21.50
2022-08-17T02:44:00.202Z,20.88
2022-08-17T02:46:29.644Z,20.65
2022-08-17T02:48:57.740Z,21.17
2022-08-17T02:51:25.484Z,22.25
2022-08-17T02:53:53.206Z,21.92
2022-08-17T02:56:41.078Z,21.30
2022-08-17T02:59:08.815Z,23.63
2022-08-17T03:01:38.593Z,22.15
2022-08-17T03:04:06.279Z,24.10
2022-08-17T03:06:34.963Z,25.23
2022-08-17T03:09:02.616Z,27.02
2022-08-17T03:11:30.309Z,27.73
2022-08-17T03:13:58.402Z,26.58
2022-08-17T03:16:26.368Z,27.27
2022-08-17T03:18:55.391Z,26.73
2022-08-17T03:21:23.382Z,27.95
2022-08-17T03:23:54.613Z,27.85
2022-08-17T03:26:22.666Z,26.85
2022-08-17T03:28:50.478Z,25.92
2022-08-17T03:31:18.291Z,24.88
2022-08-17T03:33:45.915Z,27.33
2022-08-17T03:36:15.174Z,27.65
2022-08-17T03:38:42.932Z,26.25
2022-08-17T03:41:12.765Z,26.10
2022-08-17T03:43:40.629Z,27.70
2022-08-17T03:46:24.900Z,27.77
2022-08-17T03:48:56.248Z,27.50
2022-08-17T03:51:25.341Z,31.42
2022-08-17T03:54:01.181Z,29.00
2022-08-17T03:56:29.242Z,30.58
2022-08-17T03:58:57.120Z,31.00
2022-08-17T04:01:25.082Z,31.85
2022-08-17T04:03:52.965Z,30.65
2022-08-17T04:06:20.603Z,29.95
2022-08-17T04:08:49.949Z,32.00
2022-08-17T04:11:17.546Z,31.60
2022-08-17T04:13:45.606Z,31.98
2022-08-17T04:16:13.398Z,32.72
2022-08-17T04:18:41.036Z,34.13
2022-08-17T04:21:09.454Z,32.90
2022-08-17T04:23:37.686Z,31.98
2022-08-17T04:26:06.819Z,32.38
2022-08-17T04:28:34.612Z,31.92
2022-08-17T04:31:02.483Z,28.05
2022-08-17T04:33:30.525Z,33.28
2022-08-17T04:35:59.643Z,32.15
2022-08-17T04:38:31.083Z,31.02
2022-08-17T04:43:29.953Z,31.02
2022-08-17T04:45:59.894Z,29.75
2022-08-17T04:48:36.245Z,31.48
2022-08-17T04:51:07.911Z,30.10
2022-08-17T04:53:36.015Z,29.58
2022-08-17T04:56:04.462Z,25.92
2022-08-17T04:58:33.914Z,24.50
2022-08-17T05:01:02.089Z,25.40
2022-08-17T05:03:29.953Z,22.63
2022-08-17T05:05:58.145Z,21.25
2022-08-17T05:08:25.961Z,20.50
2022-08-17T05:10:54.484Z,18.90
2022-08-17T05:13:26.035Z,20.58
2022-08-17T05:18:24.701Z,17.23
2022-08-17T05:20:53.299Z,17.90
2022-08-17T05:23:22.772Z,17.85
2022-08-17T05:25:53.838Z,17.85
2022-08-17T05:28:27.391Z,17.88
2022-08-17T05:31:00.707Z,16.48
2022-08-17T05:33:31.602Z,15.75
2022-08-17T05:36:00.916Z,16.40
2022-08-17T05:38:30.169Z,15.77
2022-08-17T05:40:58.966Z,15.48
2022-08-17T05:43:28.491Z,15.55
2022-08-17T05:46:03.720Z,14.00
2022-08-17T05:48:39.383Z,13.10
2022-08-17T05:51:43.147Z,12.30
2022-08-17T05:54:23.164Z,14.60
2022-08-17T05:57:07.834Z,12.43
2022-08-17T05:59:47.903Z,13.13
2022-08-17T06:02:24.467Z,11.75
2022-08-17T06:05:10.632Z,11.13
2022-08-17T06:07:48.377Z,11.63
2022-08-17T06:10:28.538Z,11.10
2022-08-17T06:13:15.927Z,11.32
2022-08-17T06:15:56.736Z,11.73
2022-08-17T06:18:31.780Z,11.23
2022-08-17T06:21:03.453Z,11.38
2022-08-17T06:23:37.421Z,11.32
2022-08-17T06:26:13.003Z,11.02
2022-08-17T06:28:49.206Z,12.35
2022-08-17T06:31:21.182Z,12.10
2022-08-17T06:33:50.601Z,12.88
2022-08-17T06:36:31.634Z,12.18
2022-08-17T06:39:12.033Z,12.05
2022-08-17T06:41:46.167Z,12.93
2022-08-17T06:44:43.452Z,12.63
2022-08-17T06:47:12.040Z,12.48
2022-08-17T06:49:49.549Z,11.10
2022-08-17T06:55:18.575Z,13.82
2022-08-17T06:57:51.434Z,12.73
2022-08-17T07:00:22.703Z,14.00
2022-08-17T07:05:24.792Z,14.00
2022-08-17T07:08:01.105Z,13.27
2022-08-17T07:10:34.975Z,15.07
2022-08-17T07:13:25.787Z,14.68
2022-08-17T07:15:59.445Z,13.45
2022-08-17T07:18:30.032Z,13.48
2022-08-17T07:21:11.080Z,14.88
2022-08-17T07:23:56.122Z,13.25
2022-08-17T07:26:23.972Z,13.85
2022-08-17T07:28:51.877Z,14.68
2022-08-17T07:31:19.788Z,15.40
2022-08-17T07:34:02.155Z,14.60
2022-08-17T07:36:31.666Z,13.18
2022-08-17T07:39:00.406Z,14.18
2022-08-17T07:41:58.646Z,13.13
2022-08-17T07:44:25.188Z,13.57
2022-08-17T07:46:54.597Z,13.05
2022-08-17T07:49:33.014Z,13.82
2022-08-17T07:52:24.074Z,14.38
2022-08-17T07:54:54.312Z,14.50
2022-08-17T07:57:34.409Z,14.65
2022-08-17T08:00:17.595Z,13.45
2022-08-17T08:02:58.042Z,12.20
2022-08-17T08:05:49.519Z,12.83
2022-08-17T08:08:24.884Z,12.57
2022-08-17T08:11:00.240Z,12.55
2022-08-17T08:13:29.573Z,11.45
2022-08-17T08:16:14.064Z,12.05
2022-08-17T08:18:55.405Z,10.40
2022-08-17T08:21:35.712Z,11.25
2022-08-17T08:24:22.536Z,10.13
2022-08-17T08:27:01.174Z,10.05
2022-08-17T08:29:36.256Z,10.60
2022-08-17T08:32:13.495Z,10.35
2022-08-17T08:35:01.908Z,10.30
2022-08-17T08:37:43.690Z,10.77
2022-08-17T08:40:30.696Z,10.73
2022-08-17T08:43:13.759Z,10.15
2022-08-17T08:45:48.440Z,9.73
2022-08-17T08:48:53.068Z,10.25
2022-08-17T08:51:23.353Z,10.73
2022-08-17T08:53:58.771Z,9.63
2022-08-17T08:57:11.958Z,9.75
2022-08-17T08:59:44.308Z,9.57
2022-08-17T09:02:26.597Z,9.15
2022-08-17T09:05:14.258Z,9.68
2022-08-17T09:07:51.305Z,9.85
2022-08-17T09:10:30.662Z,9.70
2022-08-17T09:13:10.939Z,9.75
2022-08-17T09:15:45.167Z,9.48
2022-08-17T09:19:00.906Z,10.13
2022-08-17T09:21:14.002Z,10.05
2022-08-17T09:23:52.941Z,10.70
2022-08-17T09:26:24.112Z,11.13
2022-08-17T09:28:56.934Z,10.07
2022-08-17T09:31:33.378Z,10.73
2022-08-17T09:34:05.557Z,10.15
2022-08-17T09:36:40.879Z,10.40
2022-08-17T09:39:14.185Z,10.50
2022-08-17T09:41:49.594Z,10.15
2022-08-17T09:44:26.479Z,11.00
2022-08-17T09:46:59.390Z,10.88
2022-08-17T09:49:31.605Z,10.32
2022-08-17T09:52:03.589Z,9.98
2022-08-17T09:54:39.143Z,10.20
2022-08-17T09:57:36.089Z,9.30
2022-08-17T10:00:19.218Z,9.57
2022-08-17T10:03:19.951Z,10.65
2022-08-17T10:05:56.500Z,9.80
2022-08-17T10:08:33.925Z,9.70
2022-08-17T10:11:11.669Z,9.35
2022-08-17T10:13:53.014Z,9.98
2022-08-17T10:16:29.834Z,9.77
2022-08-17T10:19:08.089Z,9.38
2022-08-17T10:21:40.228Z,9.88
2022-08-17T10:24:12.702Z,10.02
2022-08-17T10:26:56.662Z,10.85
2022-08-17T10:29:30.959Z,10.52
2022-08-17T10:32:23.111Z,10.25
2022-08-17T10:35:17.750Z,10.73
2022-08-17T10:38:05.323Z,11.45
2022-08-17T10:40:38.168Z,10.70
2022-08-17T10:43:21.286Z,11.30
2022-08-17T10:46:21.321Z,11.95
2022-08-17T10:49:05.425Z,11.88
2022-08-17T10:51:37.456Z,11.85
2022-08-17T10:54:05.768Z,11.75
2022-08-17T10:56:43.303Z,11.70
2022-08-17T10:59:49.331Z,11.75
2022-08-17T11:02:29.822Z,12.20
2022-08-17T11:05:13.984Z,11.68
2022-08-17T11:07:57.764Z,12.05
2022-08-17T11:10:42.423Z,17.38
2022-08-17T11:13:20.715Z,18.73
2022-08-17T11:16:06.236Z,16.60
2022-08-17T11:18:57.430Z,18.75
2022-08-17T11:21:44.510Z,19.25
2022-08-17T11:24:19.033Z,17.45
2022-08-17T11:27:03.540Z,16.98
2022-08-17T11:29:37.532Z,17.10
2022-08-17T11:32:11.216Z,12.27
2022-08-17T14:00:44.610Z,18.08
2022-08-17T14:03:12.276Z,18.08
2022-08-17T14:05:40.850Z,17.08
2022-08-17T14:08:12.652Z,14.93
2022-08-17T14:10:40.596Z,15.50
2022-08-17T14:13:08.412Z,14.48
2022-08-17T14:15:54.809Z,14.30
2022-08-17T14:18:55.850Z,11.90
2022-08-17T14:21:13.773Z,10.13
2022-08-17T14:23:48.952Z,11.82
2022-08-17T14:26:23.380Z,11.07
2022-08-17T14:28:56.457Z,13.00
2022-08-17T14:31:25.051Z,13.63
2022-08-17T14:33:54.212Z,16.23
2022-08-17T14:36:21.933Z,15.13
2022-08-17T14:38:49.621Z,15.63
2022-08-17T14:41:21.552Z,16.25
2022-08-17T14:43:50.568Z,16.33
2022-08-17T14:46:18.486Z,14.93
2022-08-17T14:48:46.123Z,15.13
2022-08-17T14:51:15.984Z,14.77
2022-08-17T14:53:43.669Z,15.13
2022-08-17T14:56:11.554Z,14.05
2022-08-17T14:58:39.533Z,15.70
2022-08-17T15:01:08.829Z,14.98
2022-08-17T15:03:40.038Z,14.77
2022-08-17T15:06:09.238Z,15.40
2022-08-17T15:08:39.224Z,16.40
2022-08-17T15:11:07.362Z,18.80
2022-08-17T15:13:52.395Z,17.98
2022-08-17T15:16:21.353Z,16.35
2022-08-17T15:18:49.032Z,15.02
2022-08-17T15:21:16.761Z,14.20
2022-08-17T15:23:46.090Z,15.57
2022-08-17T15:26:13.843Z,15.63
2022-08-17T15:28:41.549Z,15.55
2022-08-17T15:31:09.414Z,16.52
2022-08-17T15:33:37.843Z,18.42
2022-08-17T15:36:07.284Z,17.95
2022-08-17T15:38:35.559Z,21.70
2022-08-17T15:41:05.216Z,21.88
2022-08-17T15:43:34.533Z,19.40
2022-08-17T15:46:05.429Z,20.92
2022-08-17T15:48:34.956Z,20.27
2022-08-17T15:51:03.294Z,21.27
2022-08-17T15:53:31.240Z,22.35
2022-08-17T15:55:58.870Z,21.92
2022-08-17T15:58:29.876Z,20.00
2022-08-17T16:01:14.966Z,20.27
2022-08-17T16:04:03.823Z,18.85
2022-08-17T16:06:35.298Z,17.80
2022-08-17T16:09:02.980Z,19.17
2022-08-17T16:11:31.053Z,20.10
2022-08-17T16:14:00.245Z,20.98
2022-08-17T16:16:28.191Z,19.33
2022-08-17T16:18:58.886Z,16.98
2022-08-17T16:21:27.295Z,18.15
2022-08-17T16:23:57.601Z,17.77
2022-08-17T16:26:26.478Z,18.25
2022-08-17T16:28:54.806Z,16.65
2022-08-17T16:31:24.075Z,16.85
2022-08-17T18:35:36.025Z,29.08
2022-08-17T18:38:20.814Z,26.42
2022-08-17T19:00:12.101Z,25.63
2022-08-17T19:02:51.768Z,35.53
2022-08-17T19:05:30.841Z,35.03
2022-08-17T19:08:18.871Z,41.45
2022-08-17T19:10:48.801Z,34.47
2022-08-17T19:13:24.445Z,30.75
2022-08-17T19:16:14.387Z,29.67
2022-08-17T19:18:48.591Z,28.10
2022-08-17T19:21:21.650Z,28.35
2022-08-17T19:23:54.595Z,25.42
2022-08-17T19:26:55.381Z,28.17
2022-08-17T19:29:19.615Z,27.75
2022-08-17T19:31:52.577Z,28.45
2022-08-17T19:34:30.184Z,29.25
2022-08-17T19:37:07.017Z,27.73
2022-08-17T19:39:40.993Z,28.92
2022-08-17T19:42:16.208Z,28.67
2022-08-17T19:44:55.252Z,26.58
2022-08-17T19:47:53.742Z,26.20
2022-08-17T19:50:34.469Z,26.08
2022-08-17T19:53:07.115Z,25.95
2022-08-17T22:25:41.533Z,38.38
2022-08-17T22:28:11.453Z,32.72
2022-08-17T22:30:42.194Z,31.98
2022-08-17T22:33:30.311Z,37.15
2022-08-17T22:36:23.089Z,41.40
2022-08-17T22:38:52.307Z,38.58
2022-08-17T22:41:50.899Z,40.50
2022-08-17T22:44:25.860Z,35.05
2022-08-17T22:47:06.520Z,39.67
2022-08-17T22:49:53.487Z,41.75
2022-08-17T22:52:32.327Z,42.13
2022-08-17T22:55:08.307Z,60.67
2022-08-17T22:57:45.792Z,57.35
2022-08-17T23:00:33.331Z,88.95
2022-08-17T23:03:12.482Z,59.08
2022-08-17T23:05:43.241Z,48.22
2022-08-17T23:08:11.375Z,45.20
2022-08-17T23:10:40.719Z,33.28
2022-08-17T23:13:11.191Z,29.65
2022-08-17T23:15:40.109Z,29.40
2022-08-17T23:18:08.381Z,29.90
2022-08-17T23:20:38.873Z,32.35
2022-08-17T23:23:07.428Z,35.73
2022-08-17T23:25:36.474Z,37.15
2022-08-17T23:28:06.140Z,37.45
2022-08-17T23:30:39.265Z,41.33
2022-08-17T23:33:09.213Z,38.58
2022-08-17T23:35:39.996Z,37.70
2022-08-17T23:38:09.474Z,40.40
2022-08-17T23:40:37.799Z,37.55
2022-08-17T23:43:11.491Z,33.90
2022-08-17T23:45:55.750Z,32.95
2022-08-17T23:48:36.247Z,34.78
2022-08-17T23:51:09.566Z,35.83
2022-08-17T23:53:43.160Z,35.22
2022-08-17T23:56:11.603Z,37.08
2022-08-17T23:58:41.668Z,36.42
